Time;durP1;ratioP1;P1;durP2;ratioP2;P2;SDS_P1;SDS_P2;PMS_P1;PMS_P2;Temp;Humidity;BMP_temperature;BMP_pressure;BME280_temperature;BME280_humidity;BME280_pressure;Samples;Min_cycle;Max_cycle;Signal;HPM_P1;HPM_P2
2023/08/30 00:00:10;;;;;;;25.55;17.23;;;;;;;26.20;62.73;99635.63;1788260;80;21043;-71
2023/08/30 00:02:39;;;;;;;21.00;16.65;;;;;;;26.16;62.89;99630.40;1788251;80;21071;-72
2023/08/30 00:05:09;;;;;;;24.63;16.67;;;;;;;26.13;63.11;99636.65;1788263;80;21071;-72
2023/08/30 00:07:37;;;;;;;24.47;16.37;;;;;;;26.07;63.34;99633.72;1788298;80;21008;-71
2023/08/30 00:10:10;;;;;;;22.73;16.93;;;;;;;26.00;63.64;99638.92;1788461;80;20996;-71
2023/08/30 00:12:40;;;;;;;21.70;16.65;;;;;;;25.94;63.87;99643.57;1788289;79;21059;-71
2023/08/30 00:15:10;;;;;;;22.70;16.87;;;;;;;25.90;64.04;99639.17;1788548;80;21000;-70
2023/08/30 00:17:39;;;;;;;21.70;17.20;;;;;;;25.89;64.10;99645.36;1771073;80;21063;-71
2023/08/30 00:20:09;;;;;;;25.92;16.95;;;;;;;25.85;64.21;99644.91;1788288;80;20988;-71
2023/08/30 00:22:39;;;;;;;23.38;17.73;;;;;;;25.83;64.31;99647.20;1788216;80;21015;-71
2023/08/30 00:25:09;;;;;;;22.65;17.25;;;;;;;25.86;64.36;99648.80;1788126;80;21485;-72
2023/08/30 00:27:38;;;;;;;23.18;17.37;;;;;;;25.87;64.38;99646.25;1788467;80;21087;-71
2023/08/30 00:30:09;;;;;;;22.52;17.23;;;;;;;25.88;64.41;99647.91;1788484;80;21023;-71
2023/08/30 00:32:38;;;;;;;23.42;17.05;;;;;;;25.87;64.55;99646.25;1788444;80;20968;-71
2023/08/30 00:35:08;;;;;;;24.15;17.70;;;;;;;25.82;64.76;99656.20;1788734;80;21020;-70
2023/08/30 00:37:37;;;;;;;23.15;18.00;;;;;;;25.78;64.96;99653.77;1788570;80;21090;-70
2023/08/30 00:40:07;;;;;;;24.35;17.55;;;;;;;25.73;65.17;99655.86;1788374;80;21015;-70
2023/08/30 00:42:37;;;;;;;22.77;17.85;;;;;;;25.67;65.42;99662.16;1788254;80;21063;-70
2023/08/30 00:45:07;;;;;;;22.25;16.70;;;;;;;25.65;65.52;99663.59;1788423;80;21051;-71
2023/08/30 00:47:37;;;;;;;21.95;17.07;;;;;;;25.64;65.55;99661.94;1788360;80;21456;-70
2023/08/30 00:50:28;;;;;;;22.85;17.32;;;;;;;25.63;65.61;99664.48;1788239;80;20987;-70
2023/08/30 00:52:57;;;;;;;22.25;17.30;;;;;;;25.63;65.70;99661.67;1752416;81;20982;-70
2023/08/30 00:55:27;;;;;;;23.57;17.67;;;;;;;25.59;65.73;99659.50;1730209;83;21046;-72
2023/08/30 00:57:56;;;;;;;24.20;18.02;;;;;;;25.57;65.80;99662.37;1730255;83;21434;-71
2023/08/30 01:00:25;;;;;;;23.95;16.93;;;;;;;25.53;65.95;99662.74;1729914;82;21497;-72
2023/08/30 01:02:56;;;;;;;21.40;16.42;;;;;;;25.51;66.01;99663.05;1729985;83;21021;-71
2023/08/30 01:05:24;;;;;;;21.93;16.42;;;;;;;25.52;66.01;99673.70;1729953;83;21453;-71
2023/08/30 01:07:53;;;;;;;22.85;16.90;;;;;;;25.51;66.01;99674.28;1730062;83;21033;-70
2023/08/30 01:10:30;;;;;;;21.70;17.17;;;;;;;25.48;66.08;99676.88;1730078;83;21057;-71
2023/08/30 01:13:05;;;;;;;22.85;17.05;;;;;;;25.45;66.19;99672.73;1729693;83;21114;-71
2023/08/30 01:15:34;;;;;;;25.90;17.57;;;;;;;25.44;66.28;99675.84;1730127;83;20998;-71
2023/08/30 01:18:04;;;;;;;23.10;17.10;;;;;;;25.39;66.43;99672.58;1730064;83;21002;-71
2023/08/30 01:20:38;;;;;;;21.77;17.20;;;;;;;25.37;66.50;99668.43;1730267;83;21049;-71
2023/08/30 01:23:26;;;;;;;21.40;17.35;;;;;;;25.32;66.59;99667.94;1730167;83;21030;-71
2023/08/30 01:26:16;;;;;;;24.72;17.75;;;;;;;25.32;66.68;99672.72;1730115;83;21038;-71
2023/08/30 01:28:46;;;;;;;20.75;17.23;;;;;;;25.28;66.68;99669.14;1729564;83;21026;-70
2023/08/30 01:31:15;;;;;;;23.47;16.85;;;;;;;25.29;66.71;99674.17;1729984;83;21473;-70
2023/08/30 01:33:45;;;;;;;21.65;16.80;;;;;;;25.29;66.78;99674.17;1730256;83;21034;-72
2023/08/30 01:36:15;;;;;;;25.80;17.50;;;;;;;25.25;66.89;99674.54;1730175;83;21018;-71
2023/08/30 01:38:44;;;;;;;26.75;18.00;;;;;;;25.25;66.96;99674.54;1730224;83;21073;-71
2023/08/30 01:41:13;;;;;;;21.40;16.82;;;;;;;25.23;66.96;99669.81;1730232;83;21092;-70
2023/08/30 01:43:42;;;;;;;22.22;17.02;;;;;;;25.21;67.03;99672.10;1730328;83;21065;-71
2023/08/30 01:46:12;;;;;;;24.02;16.75;;;;;;;25.20;67.02;99669.04;1730045;83;21037;-70
2023/08/30 01:48:41;;;;;;;22.70;17.32;;;;;;;25.19;66.96;99673.81;1730270;83;20978;-71
2023/08/30 01:51:11;;;;;;;21.73;17.00;;;;;;;25.18;66.92;99668.52;1731172;83;21093;-69
2023/08/30 01:53:40;;;;;;;21.45;17.15;;;;;;;25.18;66.92;99672.16;1735225;83;21057;-71
2023/08/30 01:56:09;;;;;;;21.25;15.98;;;;;;;25.18;66.92;99668.52;1735443;83;21345;-71
2023/08/30 01:58:37;;;;;;;21.35;15.90;;;;;;;25.16;66.90;99664.63;1735481;83;21068;-70
2023/08/30 02:01:08;;;;;;;24.32;17.30;;;;;;;25.18;66.91;99665.72;1735222;83;21520;-71
2023/08/30 02:03:38;;;;;;;22.50;16.35;;;;;;;25.15;66.99;99666.34;1735419;83;21076;-71
2023/08/30 02:06:22;;;;;;;22.27;16.80;;;;;;;25.13;67.04;99664.42;1735474;83;21688;-71
2023/08/30 02:09:05;;;;;;;24.72;17.45;;;;;;;25.14;67.06;99664.68;1710925;83;21111;-71
2023/08/30 02:11:37;;;;;;;23.60;17.37;;;;;;;25.14;67.05;99668.31;1735296;83;21041;-71
2023/08/30 02:14:07;;;;;;;20.92;16.95;;;;;;;25.12;67.12;99662.77;1735306;83;21069;-71
2023/08/30 02:16:38;;;;;;;25.68;17.07;;;;;;;25.11;67.18;99667.53;1735298;83;21049;-70
2023/08/30 02:19:07;;;;;;;23.73;17.23;;;;;;;25.08;67.19;99660.33;1735448;83;21477;-71
2023/08/30 02:21:37;;;;;;;22.77;16.67;;;;;;;25.06;67.28;99666.24;1735546;83;21465;-70
2023/08/30 02:24:08;;;;;;;22.62;17.40;;;;;;;25.05;67.36;99669.36;1735392;83;21128;-70
2023/08/30 02:26:37;;;;;;;21.90;17.80;;;;;;;25.06;67.33;99676.05;1711512;83;21045;-71
2023/08/30 02:29:09;;;;;;;21.95;18.07;;;;;;;25.09;67.29;99676.00;1735329;83;21048;-70
2023/08/30 02:31:39;;;;;;;22.37;17.75;;;;;;;25.07;67.30;99669.88;1735226;83;21485;-70
2023/08/30 02:34:08;;;;;;;22.60;17.73;;;;;;;25.06;67.32;99669.62;1735509;83;21033;-71
2023/08/30 02:36:38;;;;;;;24.80;17.35;;;;;;;25.07;67.28;99667.07;1735180;82;21037;-71
2023/08/30 02:39:08;;;;;;;24.98;17.15;;;;;;;25.07;67.25;99665.67;1735343;83;21029;-72
2023/08/30 02:41:37;;;;;;;23.60;17.00;;;;;;;25.06;67.25;99667.64;1735241;83;21548;-71
2023/08/30 02:44:08;;;;;;;23.00;17.50;;;;;;;25.08;67.18;99665.93;1735503;83;21053;-69
2023/08/30 02:46:42;;;;;;;24.82;18.42;;;;;;;25.09;67.03;99664.78;1735240;82;21041;-71
2023/08/30 02:49:11;;;;;;;27.20;18.85;;;;;;;25.10;66.98;99673.45;1734929;83;21073;-69
2023/08/30 02:51:42;;;;;;;23.57;17.55;;;;;;;25.12;66.91;99668.37;1733135;83;21064;-69
2023/08/30 02:54:13;;;;;;;22.95;18.23;;;;;;;25.14;66.82;99664.68;1727177;83;21037;-70
2023/08/30 02:56:43;;;;;;;21.27;17.73;;;;;;;25.11;66.84;99668.94;1727208;83;21077;-71
2023/08/30 02:59:13;;;;;;;23.22;16.85;;;;;;;25.07;66.98;99666.50;1727406;83;21089;-72
2023/08/30 03:01:43;;;;;;;23.18;17.32;;;;;;;25.06;67.02;99668.21;1727127;83;21073;-71
2023/08/30 03:04:12;;;;;;;26.25;17.48;;;;;;;25.04;67.07;99673.30;1727252;83;21081;-70
2023/08/30 03:06:42;;;;;;;24.37;17.57;;;;;;;25.05;67.04;99674.39;1727363;83;21496;-70
2023/08/30 03:09:12;;;;;;;24.10;18.57;;;;;;;25.06;66.98;99674.66;1727369;83;21183;-71
2023/08/30 03:11:44;;;;;;;24.95;18.90;;;;;;;25.05;66.96;99676.36;1699604;83;21132;-71
2023/08/30 03:14:15;;;;;;;22.75;17.85;;;;;;;25.02;66.98;99671.38;1727273;83;21026;-69
2023/08/30 03:16:46;;;;;;;24.87;18.45;;;;;;;25.03;66.91;99673.05;1727347;83;21073;-69
2023/08/30 03:19:17;;;;;;;22.90;17.95;;;;;;;25.00;66.89;99672.27;1727358;82;21124;-70
2023/08/30 03:21:47;;;;;;;24.32;17.95;;;;;;;24.99;66.96;99674.23;1727213;82;21484;-70
2023/08/30 03:24:17;;;;;;;20.23;16.95;;;;;;;24.94;67.10;99672.33;1727240;83;21078;-71
2023/08/30 03:26:47;;;;;;;26.33;18.23;;;;;;;24.90;67.19;99675.50;1727325;83;21089;-70
2023/08/30 03:29:17;;;;;;;28.87;17.95;;;;;;;24.91;67.21;99678.56;1727320;83;21493;-71
2023/08/30 03:31:47;;;;;;;24.72;17.57;;;;;;;24.95;67.15;99678.20;1727133;83;21103;-71
2023/08/30 03:34:16;;;;;;;25.27;18.35;;;;;;;24.96;67.11;99672.85;1727113;83;21508;-70
2023/08/30 03:36:53;;;;;;;24.10;18.40;;;;;;;24.99;67.05;99680.41;1727178;83;21089;-70
2023/08/30 03:39:17;;;;;;;26.25;18.75;;;;;;;24.99;67.00;99686.02;1726447;83;21049;-70
2023/08/30 03:41:47;;;;;;;22.60;18.10;;;;;;;25.02;66.94;99681.19;1727329;83;21050;-70
2023/08/30 03:44:16;;;;;;;22.50;17.25;;;;;;;25.04;66.85;99677.50;1727272;83;21053;-70
2023/08/30 03:46:49;;;;;;;24.23;18.30;;;;;;;25.04;66.86;99685.91;1727172;83;21116;-69
2023/08/30 03:49:18;;;;;;;23.20;18.00;;;;;;;25.06;66.87;99687.27;1727120;83;21493;-71
2023/08/30 03:51:48;;;;;;;26.23;20.65;;;;;;;25.06;66.82;99680.26;1700974;83;21089;-70
2023/08/30 03:54:17;;;;;;;27.35;19.25;;;;;;;25.08;66.75;99672.36;1735157;82;21105;-70
2023/08/30 03:56:47;;;;;;;25.15;18.85;;;;;;;25.09;66.82;99676.00;1735133;83;21041;-71
2023/08/30 03:59:17;;;;;;;24.85;18.32;;;;;;;25.06;66.89;99674.66;1735185;83;21040;-70
2023/08/30 04:01:47;;;;;;;25.40;18.90;;;;;;;25.04;66.96;99670.50;1735105;83;21100;-71
2023/08/30 04:04:18;;;;;;;23.70;17.70;;;;;;;25.03;67.04;99671.64;1735173;83;21511;-69
2023/08/30 04:06:46;;;;;;;24.20;18.45;;;;;;;25.03;67.02;99673.87;1735405;82;21069;-70
2023/08/30 04:09:17;;;;;;;25.82;18.00;;;;;;;25.06;66.89;99676.62;1735363;83;21017;-71
2023/08/30 04:11:45;;;;;;;21.55;17.80;;;;;;;25.08;66.79;99677.97;1735501;83;21080;-69
2023/08/30 04:14:15;;;;;;;26.42;18.82;;;;;;;25.11;66.72;99671.74;1735338;83;21041;-70
2023/08/30 04:16:44;;;;;;;24.85;18.73;;;;;;;25.16;66.60;99682.02;1735158;83;21061;-71
2023/08/30 04:19:13;;;;;;;25.23;19.07;;;;;;;25.18;66.46;99679.16;1735167;83;21622;-69
2023/08/30 04:21:43;;;;;;;27.73;18.45;;;;;;;25.21;66.39;99674.91;1734601;83;21504;-69
2023/08/30 04:24:14;;;;;;;24.65;19.55;;;;;;;25.24;66.43;99675.69;1735158;82;21105;-71
2023/08/30 04:26:49;;;;;;;23.57;18.50;;;;;;;25.27;66.36;99675.89;1735420;83;21033;-70
2023/08/30 04:29:16;;;;;;;22.90;17.98;;;;;;;25.29;66.23;99680.61;1735388;83;21088;-70
2023/08/30 04:31:46;;;;;;;23.05;17.67;;;;;;;25.34;66.11;99685.28;1735318;82;21429;-70
2023/08/30 04:34:16;;;;;;;28.87;18.73;;;;;;;25.38;65.96;99680.73;1735323;83;21065;-70
2023/08/30 04:36:46;;;;;;;24.95;18.42;;;;;;;25.41;65.91;99683.48;1735328;83;21511;-71
2023/08/30 04:39:17;;;;;;;25.80;19.60;;;;;;;25.43;65.82;99686.81;1735351;83;21065;-70
2023/08/30 04:41:47;;;;;;;24.95;18.25;;;;;;;25.42;65.84;99689.35;1735327;83;21061;-70
2023/08/30 04:44:19;;;;;;;26.75;18.70;;;;;;;25.43;65.89;99682.03;1735128;83;21025;-70
2023/08/30 04:46:48;;;;;;;27.13;19.60;;;;;;;25.44;65.80;99689.30;1735378;83;21032;-70
2023/08/30 04:49:20;;;;;;;33.18;18.52;;;;;;;25.46;65.79;99689.81;1735217;83;21481;-70
2023/08/30 04:51:49;;;;;;;28.47;19.42;;;;;;;25.49;65.73;99689.19;1734618;82;21512;-71
2023/08/30 04:54:19;;;;;;;26.73;18.17;;;;;;;25.52;65.72;99683.52;1727131;83;21120;-69
2023/08/30 04:56:49;;;;;;;26.77;18.57;;;;;;;25.53;65.65;99674.80;1727092;83;21037;-70
2023/08/30 04:59:18;;;;;;;23.42;17.90;;;;;;;25.56;65.61;99680.34;1727247;83;21061;-70
2023/08/30 05:01:51;;;;;;;25.12;18.30;;;;;;;25.59;65.52;99674.94;1727272;83;21099;-70
2023/08/30 05:04:22;;;;;;;28.47;19.02;;;;;;;25.62;65.45;99679.66;1727071;83;21112;-70
2023/08/30 05:06:52;;;;;;;26.30;19.32;;;;;;;25.64;65.41;99671.76;1727019;83;21509;-69
2023/08/30 05:09:24;;;;;;;28.05;18.60;;;;;;;25.68;65.50;99671.41;1727331;83;21111;-70
2023/08/30 05:11:55;;;;;;;29.27;18.92;;;;;;;25.73;65.21;99678.31;1727238;83;21484;-69
2023/08/30 05:14:25;;;;;;;28.17;19.52;;;;;;;25.78;64.93;99678.20;1727078;83;21054;-70
2023/08/30 05:16:54;;;;;;;26.30;19.42;;;;;;;25.83;64.80;99683.69;1727318;83;21465;-69
2023/08/30 05:19:24;;;;;;;24.67;17.67;;;;;;;25.87;64.66;99690.33;1727562;83;21033;-69
2023/08/30 05:21:54;;;;;;;25.10;17.77;;;;;;;25.94;64.18;99687.91;1727421;82;21045;-69
2023/08/30 05:24:26;;;;;;;23.30;17.57;;;;;;;26.02;63.90;99684.38;1727295;83;21105;-70
2023/08/30 05:26:56;;;;;;;22.90;17.80;;;;;;;26.06;63.51;99689.62;1727372;83;21029;-69
2023/08/30 05:29:27;;;;;;;24.12;18.57;;;;;;;26.15;63.36;99693.90;1727117;83;21069;-71
2023/08/30 05:31:57;;;;;;;23.22;17.45;;;;;;;26.25;63.01;99693.65;1727419;83;21069;-70
2023/08/30 05:34:29;;;;;;;25.75;17.20;;;;;;;26.32;62.64;99694.03;1725346;82;21124;-71
2023/08/30 05:37:19;;;;;;;24.65;18.17;;;;;;;26.43;62.09;99689.02;1726469;83;21081;-70
2023/08/30 05:39:53;;;;;;;20.95;16.67;;;;;;;26.54;61.84;99691.23;1726717;83;21567;-70
2023/08/30 05:42:23;;;;;;;24.55;16.52;;;;;;;26.67;61.44;99683.08;1727108;83;21748;-69
2023/08/30 05:44:53;;;;;;;22.87;17.48;;;;;;;26.77;60.97;99683.63;1727123;83;21067;-71
2023/08/30 05:47:23;;;;;;;29.67;17.37;;;;;;;26.87;60.40;99675.48;1727217;83;21517;-70
2023/08/30 05:49:52;;;;;;;23.45;17.02;;;;;;;26.95;60.03;99681.73;1727170;83;21101;-70
2023/08/30 05:52:22;;;;;;;24.72;16.40;;;;;;;27.06;59.68;99676.67;1722704;83;21133;-69
2023/08/30 05:54:52;;;;;;;24.40;15.55;;;;;;;27.15;59.28;99682.58;1727329;82;21062;-70
2023/08/30 05:57:24;;;;;;;21.25;15.93;;;;;;;27.24;58.94;99679.80;1727368;83;21093;-70
2023/08/30 05:59:57;;;;;;;21.77;16.02;;;;;;;27.35;58.44;99678.38;1727330;83;21037;-72
2023/08/30 06:02:26;;;;;;;21.42;15.45;;;;;;;27.43;57.98;99681.78;1727132;82;21132;-69
2023/08/30 06:04:58;;;;;;;21.10;15.38;;;;;;;27.49;57.83;99674.02;1727254;83;21492;-71
2023/08/30 06:07:28;;;;;;;20.12;15.50;;;;;;;27.56;57.47;99680.57;1727321;83;21002;-71
2023/08/30 06:09:58;;;;;;;21.55;15.15;;;;;;;27.59;57.33;99686.95;1727129;82;21139;-69
2023/08/30 06:12:29;;;;;;;20.52;14.98;;;;;;;27.63;57.33;99679.53;1699800;83;21117;-71
2023/08/30 06:14:58;;;;;;;20.43;15.30;;;;;;;27.70;57.02;99680.70;1727223;83;21061;-69
2023/08/30 06:17:28;;;;;;;19.20;15.32;;;;;;;27.72;56.80;99678.97;1727238;83;21543;-70
2023/08/30 06:19:58;;;;;;;27.40;15.85;;;;;;;27.72;56.69;99676.98;1727351;83;21484;-72
2023/08/30 06:22:28;;;;;;;21.40;16.05;;;;;;;27.73;56.74;99674.42;1699369;83;21145;-71
2023/08/30 06:24:57;;;;;;;23.07;15.15;;;;;;;27.77;56.59;99674.59;1727079;83;21073;-70
2023/08/30 06:27:26;;;;;;;21.35;15.28;;;;;;;27.77;56.33;99678.81;1722897;83;21093;-70
2023/08/30 06:29:57;;;;;;;21.10;14.93;;;;;;;27.74;56.26;99689.32;1727117;82;21524;-70
2023/08/30 06:32:27;;;;;;;20.23;15.35;;;;;;;27.70;56.17;99689.16;1727253;83;21052;-72
2023/08/30 06:34:59;;;;;;;22.98;15.30;;;;;;;27.64;56.24;99688.23;1727143;83;21457;-70
2023/08/30 06:37:30;;;;;;;28.47;15.25;;;;;;;27.60;56.23;99690.02;1727159;83;21551;-70
2023/08/30 06:40:00;;;;;;;24.67;16.25;;;;;;;27.59;56.42;99686.95;1727146;83;21021;-72
2023/08/30 06:42:30;;;;;;;23.22;16.40;;;;;;;27.60;56.68;99684.38;1722577;82;21058;-70
2023/08/30 06:44:59;;;;;;;19.52;15.53;;;;;;;27.62;56.56;99687.73;1727342;83;21069;-71
2023/08/30 06:47:30;;;;;;;19.37;15.10;;;;;;;27.62;56.56;99687.73;1727358;83;21117;-71
2023/08/30 06:50:00;;;;;;;21.55;15.93;;;;;;;27.61;56.43;99690.30;1727286;83;21050;-71
2023/08/30 06:52:31;;;;;;;21.55;15.15;;;;;;;27.63;56.59;99694.44;1727240;81;21493;-73
2023/08/30 06:55:02;;;;;;;20.30;15.28;;;;;;;27.68;56.70;99697.67;1727184;83;21050;-72
2023/08/30 06:57:32;;;;;;;21.95;15.43;;;;;;;27.73;56.44;99696.11;1727443;83;21077;-71
2023/08/30 07:00:07;;;;;;;22.50;14.68;;;;;;;27.76;56.48;99697.69;1722794;83;21089;-71
2023/08/30 07:02:37;;;;;;;18.10;15.08;;;;;;;27.81;56.45;99698.11;1727398;83;21073;-71
2023/08/30 07:05:09;;;;;;;18.87;14.58;;;;;;;27.87;56.26;99695.96;1722702;83;21065;-72
2023/08/30 07:07:38;;;;;;;20.55;15.03;;;;;;;27.92;56.24;99698.61;1727390;83;21511;-68
2023/08/30 07:10:09;;;;;;;22.98;15.63;;;;;;;27.98;56.31;99695.34;1727132;83;21465;-70
2023/08/30 07:12:39;;;;;;;20.85;16.17;;;;;;;28.07;56.42;99693.93;1727369;83;21017;-69
2023/08/30 07:15:10;;;;;;;20.55;15.30;;;;;;;28.20;56.60;99699.97;1727124;83;21049;-69
2023/08/30 07:17:42;;;;;;;20.55;16.35;;;;;;;28.20;56.60;99699.97;1727136;83;21077;-69
2023/08/30 07:20:13;;;;;;;22.00;15.30;;;;;;;28.26;56.38;99690.80;1725264;83;21073;-71
2023/08/30 07:22:43;;;;;;;21.33;15.90;;;;;;;28.32;56.21;99683.84;1727101;83;21527;-71
2023/08/30 07:25:14;;;;;;;19.48;15.80;;;;;;;28.40;56.20;99689.45;1727279;83;21073;-70
2023/08/30 07:27:43;;;;;;;25.97;14.83;;;;;;;28.46;56.24;99694.92;1727146;83;21507;-70
2023/08/30 07:30:14;;;;;;;22.35;14.50;;;;;;;28.53;55.92;99691.02;1727374;83;21105;-70
2023/08/30 07:32:43;;;;;;;21.15;15.45;;;;;;;28.58;55.61;99700.12;1727087;83;21045;-71
2023/08/30 07:35:14;;;;;;;23.07;17.05;;;;;;;28.64;55.20;99695.16;1727272;83;21068;-71
2023/08/30 07:37:47;;;;;;;20.52;14.43;;;;;;;28.68;55.01;99694.16;1727149;83;21084;-71
2023/08/30 07:40:20;;;;;;;20.20;14.38;;;;;;;28.73;54.35;99696.80;1727068;83;21054;-69
2023/08/30 07:42:50;;;;;;;22.37;14.35;;;;;;;28.79;54.52;99690.98;1727455;83;21002;-71
2023/08/30 07:45:20;;;;;;;23.45;14.98;;;;;;;28.88;54.40;99688.99;1727149;83;21049;-71
2023/08/30 07:47:50;;;;;;;19.30;13.43;;;;;;;28.97;54.27;99689.78;1727305;83;21089;-70
2023/08/30 07:50:19;;;;;;;20.17;13.40;;;;;;;29.06;54.27;99682.70;1727284;83;21073;-71
2023/08/30 07:52:48;;;;;;;20.65;14.28;;;;;;;29.18;53.82;99682.23;1723615;81;21101;-72
2023/08/30 07:55:17;;;;;;;19.05;13.38;;;;;;;29.27;53.41;99680.22;1721820;82;21026;-73
2023/08/30 07:57:47;;;;;;;23.85;13.85;;;;;;;29.33;53.00;99681.67;1721987;83;21103;-70
2023/08/30 08:00:17;;;;;;;33.10;14.38;;;;;;;29.41;52.88;99677.16;1721498;83;21048;-69
2023/08/30 08:02:46;;;;;;;23.73;14.05;;;;;;;29.53;52.44;99687.16;1721323;83;21022;-67
2023/08/30 08:05:16;;;;;;;19.57;13.60;;;;;;;29.65;52.18;99682.18;1721403;83;21062;-71
2023/08/30 08:07:46;;;;;;;17.05;12.43;;;;;;;29.77;51.68;99686.50;1721230;83;21062;-71
2023/08/30 08:10:14;;;;;;;19.60;12.13;;;;;;;29.88;51.13;99683.51;1721109;83;21515;-70
2023/08/30 08:12:43;;;;;;;24.63;13.10;;;;;;;30.02;50.79;99686.70;1720789;83;21074;-71
2023/08/30 08:15:12;;;;;;;23.62;12.73;;;;;;;30.14;50.67;99683.94;1720454;83;21089;-69
2023/08/30 08:17:41;;;;;;;19.80;11.15;;;;;;;30.27;50.53;99686.48;1720559;83;21042;-71
2023/08/30 08:20:11;;;;;;;32.50;13.58;;;;;;;30.46;49.92;99691.61;1720471;83;21054;-70
2023/08/30 08:22:40;;;;;;;14.33;10.45;;;;;;;30.76;48.71;99683.05;1720666;83;21059;-70
2023/08/30 08:25:10;;;;;;;18.50;11.70;;;;;;;31.01;47.61;99683.33;1720648;83;21639;-70
2023/08/30 08:27:39;;;;;;;18.48;12.33;;;;;;;31.13;46.66;99688.17;1721273;83;21039;-71
2023/08/30 08:30:09;;;;;;;15.85;11.48;;;;;;;31.17;46.96;99690.56;1721395;83;21038;-70
2023/08/30 08:32:38;;;;;;;21.37;12.13;;;;;;;31.23;46.86;99690.59;1695567;83;21165;-72
2023/08/30 08:35:08;;;;;;;15.75;10.78;;;;;;;31.26;46.81;99694.14;1721441;83;21042;-72
2023/08/30 08:37:37;;;;;;;17.48;11.35;;;;;;;31.30;46.59;99690.84;1721428;83;21078;-71
2023/08/30 08:40:10;;;;;;;14.63;10.75;;;;;;;31.32;46.45;99689.06;1721218;83;21183;-71
2023/08/30 08:42:40;;;;;;;20.55;12.43;;;;;;;31.33;46.46;99693.55;1721233;83;21062;-70
2023/08/30 08:45:13;;;;;;;16.25;10.90;;;;;;;31.32;46.47;99686.23;1721339;83;21102;-72
2023/08/30 08:47:42;;;;;;;14.75;10.85;;;;;;;31.33;46.40;99687.89;1721363;83;21078;-71
2023/08/30 08:50:12;;;;;;;16.50;10.48;;;;;;;31.33;45.87;99682.23;1721498;83;21105;-71
2023/08/30 08:52:41;;;;;;;14.53;10.45;;;;;;;31.35;45.90;99678.45;1721372;83;21050;-72
2023/08/30 08:55:12;;;;;;;15.80;10.40;;;;;;;31.40;45.79;99682.46;1718022;83;21117;-69
2023/08/30 08:57:41;;;;;;;13.35;10.03;;;;;;;31.45;45.45;99674.55;1721384;83;21082;-68
2023/08/30 09:00:12;;;;;;;14.03;10.32;;;;;;;31.48;45.47;99670.19;1721492;83;21019;-71
2023/08/30 09:02:41;;;;;;;13.68;10.38;;;;;;;31.52;45.19;99677.61;1722322;83;21025;-69
2023/08/30 09:05:10;;;;;;;16.12;11.55;;;;;;;31.52;44.96;99673.95;1744920;82;21089;-70
2023/08/30 09:07:39;;;;;;;12.93;10.48;;;;;;;31.51;45.10;99667.47;1722498;82;21030;-69
2023/08/30 09:10:09;;;;;;;13.95;10.25;;;;;;;31.52;45.04;99659.20;1722352;83;21041;-72
2023/08/30 09:12:38;;;;;;;18.57;10.53;;;;;;;31.54;44.92;99663.09;1722351;83;21121;-69
2023/08/30 09:15:08;;;;;;;14.60;10.10;;;;;;;31.57;45.06;99652.47;1722516;83;21061;-68
2023/08/30 09:17:39;;;;;;;17.15;10.75;;;;;;;31.67;44.75;99650.56;1722468;83;21084;-69
2023/08/30 09:20:12;;;;;;;14.55;10.23;;;;;;;31.79;44.59;99653.41;1722411;83;21093;-68
2023/08/30 09:22:43;;;;;;;12.55;9.48;;;;;;;31.94;44.05;99649.61;1722436;83;21041;-69
2023/08/30 09:25:16;;;;;;;15.05;9.98;;;;;;;32.04;43.73;99646.27;1722458;82;21081;-69
2023/08/30 09:27:45;;;;;;;18.17;9.63;;;;;;;32.11;43.88;99647.91;1722400;83;21065;-68
2023/08/30 09:30:15;;;;;;;16.35;9.70;;;;;;;32.23;43.18;99647.84;1722430;83;21057;-69
2023/08/30 09:32:45;;;;;;;15.38;9.38;;;;;;;32.32;42.83;99645.71;1720103;82;21103;-68
2023/08/30 09:35:14;;;;;;;13.65;9.78;;;;;;;32.40;42.60;99643.91;1722396;82;21437;-68
2023/08/30 09:37:45;;;;;;;11.03;9.18;;;;;;;32.49;42.28;99647.40;1722387;83;21033;-67
2023/08/30 09:40:19;;;;;;;15.43;9.60;;;;;;;32.56;41.63;99639.71;1721218;83;21025;-67
2023/08/30 09:42:49;;;;;;;11.50;8.78;;;;;;;32.54;41.25;99634.41;1702545;83;21511;-69
2023/08/30 09:45:22;;;;;;;12.37;8.95;;;;;;;32.54;41.23;99639.25;1698850;84;21064;-69
2023/08/30 09:47:52;;;;;;;14.58;9.85;;;;;;;32.46;41.19;99636.19;1702408;83;21500;-68
2023/08/30 09:50:22;;;;;;;11.90;8.90;;;;;;;32.37;41.12;99632.69;1702545;84;21036;-69
2023/08/30 09:52:52;;;;;;;9.78;8.43;;;;;;;32.31;41.17;99622.80;1702483;84;21101;-70
2023/08/30 09:55:22;;;;;;;14.68;8.53;;;;;;;32.27;41.16;99621.05;1697745;83;21049;-70
2023/08/30 09:57:51;;;;;;;13.50;9.20;;;;;;;32.26;40.89;99623.06;1696939;84;21554;-70
2023/08/30 10:00:21;;;;;;;15.98;9.50;;;;;;;32.23;40.28;99620.91;1697059;84;21153;-72
2023/08/30 10:02:50;;;;;;;13.15;9.48;;;;;;;32.21;40.38;99616.80;1632590;88;21101;-70
2023/08/30 10:05:21;;;;;;;16.37;8.90;;;;;;;32.22;40.63;99616.44;1632881;88;21518;-70
2023/08/30 10:07:52;;;;;;;11.60;9.33;;;;;;;32.26;40.61;99610.89;1631167;88;21075;-70
2023/08/30 10:10:21;;;;;;;14.40;8.53;;;;;;;32.26;40.36;99611.72;1641477;86;21039;-72
2023/08/30 10:12:49;;;;;;;14.85;8.45;;;;;;;32.28;40.25;99605.09;1635432;88;21103;-73
2023/08/30 10:15:21;;;;;;;11.83;8.45;;;;;;;32.32;39.96;99605.19;1617997;88;21506;-74
2023/08/30 10:17:51;;;;;;;17.10;9.13;;;;;;;32.32;40.04;99599.52;1659556;86;21181;-71
2023/08/30 10:20:20;;;;;;;12.47;8.48;;;;;;;32.28;40.26;99606.52;1636472;88;21086;-72
2023/08/30 10:22:49;;;;;;;12.65;9.03;;;;;;;32.26;39.59;99597.54;1659419;86;21063;-71
2023/08/30 10:25:25;;;;;;;11.85;7.92;;;;;;;32.26;39.61;99596.13;1636300;88;21191;-69
2023/08/30 10:27:54;;;;;;;12.53;8.63;;;;;;;32.29;39.62;99594.58;1633003;88;21078;-71
2023/08/30 10:30:23;;;;;;;13.10;8.80;;;;;;;32.32;39.40;99589.00;1659350;86;21082;-71
2023/08/30 10:32:52;;;;;;;12.80;8.33;;;;;;;32.35;39.32;99586.03;1636501;88;21058;-70
2023/08/30 10:35:21;;;;;;;14.18;8.93;;;;;;;32.40;38.95;99590.84;1631115;88;21094;-70
2023/08/30 10:37:59;;;;;;;11.40;8.70;;;;;;;32.38;38.93;99588.14;1636476;88;21055;-71
2023/08/30 10:40:27;;;;;;;11.20;8.25;;;;;;;32.32;38.59;99573.41;1596496;88;21089;-71
2023/08/30 10:43:04;;;;;;;17.55;9.33;;;;;;;32.31;39.00;99576.61;1660044;86;21084;-69
2023/08/30 10:45:33;;;;;;;16.82;9.28;;;;;;;32.32;38.93;99574.83;1625574;88;21081;-71
2023/08/30 10:48:04;;;;;;;15.65;9.38;;;;;;;32.34;38.84;99570.20;1638090;87;21676;-73
2023/08/30 10:50:34;;;;;;;23.22;9.23;;;;;;;32.32;39.01;99564.91;1623736;86;21061;-70
2023/08/30 10:53:05;;;;;;;15.95;9.30;;;;;;;32.34;38.46;99568.20;1664833;85;21112;-71
2023/08/30 10:55:34;;;;;;;16.20;9.10;;;;;;;32.35;38.34;99561.34;1687883;85;21069;-71
2023/08/30 10:58:04;;;;;;;14.68;8.75;;;;;;;32.35;38.41;99559.92;1693018;84;21152;-71
2023/08/30 11:00:35;;;;;;;10.93;8.55;;;;;;;32.33;38.28;99555.20;1697364;84;21079;-70
2023/08/30 11:03:04;;;;;;;17.45;9.30;;;;;;;32.32;38.13;99552.14;1692539;85;21305;-70
2023/08/30 11:05:34;;;;;;;15.35;8.80;;;;;;;32.33;38.04;99541.03;1669005;85;21058;-70
2023/08/30 11:08:05;;;;;;;15.10;8.18;;;;;;;32.36;38.20;99537.47;1692607;85;21081;-71
2023/08/30 11:10:35;;;;;;;14.60;8.75;;;;;;;32.37;37.95;99532.62;1669119;85;21067;-70
2023/08/30 11:13:04;;;;;;;13.60;8.43;;;;;;;32.38;37.98;99534.27;1692505;85;21074;-70
2023/08/30 11:15:34;;;;;;;13.72;9.03;;;;;;;32.39;37.98;99531.66;1692595;84;21073;-70
2023/08/30 11:18:06;;;;;;;13.55;8.63;;;;;;;32.38;37.54;99525.76;1678315;84;21059;-70
2023/08/30 11:20:36;;;;;;;14.18;8.48;;;;;;;32.33;37.61;99522.60;1705180;84;21063;-70
2023/08/30 11:23:04;;;;;;;14.70;8.15;;;;;;;32.32;37.62;99511.03;1704833;84;21039;-71
2023/08/30 11:25:33;;;;;;;16.27;9.25;;;;;;;32.34;37.74;99514.91;1704872;84;21106;-71
2023/08/30 11:28:05;;;;;;;15.13;9.08;;;;;;;32.35;37.26;99506.05;1705049;84;21082;-70
2023/08/30 11:30:34;;;;;;;12.30;7.92;;;;;;;32.36;37.14;99500.61;1704949;83;21490;-69
2023/08/30 11:33:03;;;;;;;15.03;8.70;;;;;;;32.40;37.07;99490.17;1683076;84;21043;-70